Time;durP1;ratioP1;P1;durP2;ratioP2;P2;SDS_P1;SDS_P2;PMS_P1;PMS_P2;Temp;Humidity;BMP_temperature;BMP_pressure;BME280_temperature;BME280_humidity;BME280_pressure;Samples;Min_cycle;Max_cycle;Signal;HPM_P1;HPM_P2
2022/03/15 00:01:12;;;;;;;19.83;18.03;;;4.50;99.90;;;;;;4942793;29;20945;-74
2022/03/15 00:03:41;;;;;;;19.43;17.10;;;4.50;99.90;;;;;;4953108;28;21004;-74
2022/03/15 00:06:10;;;;;;;20.33;18.23;;;4.50;99.90;;;;;;4951229;28;20466;-74
2022/03/15 00:08:39;;;;;;;19.87;17.77;;;4.40;99.90;;;;;;4954744;29;20889;-74
2022/03/15 00:11:09;;;;;;;18.90;17.00;;;4.40;99.90;;;;;;4953880;28;20486;-74
2022/03/15 00:13:38;;;;;;;19.60;17.70;;;4.40;99.90;;;;;;4953856;28;20497;-74
2022/03/15 00:16:07;;;;;;;18.87;16.97;;;4.40;99.90;;;;;;4955128;28;20459;-74
2022/03/15 00:18:37;;;;;;;18.87;16.87;;;4.30;99.90;;;;;;4955374;28;20423;-74
2022/03/15 00:21:10;;;;;;;20.40;17.33;;;4.30;99.90;;;;;;4953775;28;20493;-74
2022/03/15 00:23:40;;;;;;;19.87;17.77;;;4.30;99.90;;;;;;4940233;29;20471;-74
2022/03/15 00:26:08;;;;;;;18.77;16.90;;;4.30;99.90;;;;;;4936136;29;20471;-74
2022/03/15 00:28:37;;;;;;;18.57;16.67;;;4.30;99.90;;;;;;4934665;29;20452;-74
2022/03/15 00:31:05;;;;;;;18.70;16.70;;;4.20;99.90;;;;;;4936100;29;20821;-74
2022/03/15 00:33:34;;;;;;;17.50;15.80;;;4.20;99.90;;;;;;4935793;29;20522;-74
2022/03/15 00:36:02;;;;;;;21.33;16.90;;;4.20;99.90;;;;;;4934474;29;21015;-74
2022/03/15 00:38:30;;;;;;;19.20;17.20;;;4.20;99.90;;;;;;4934510;29;20801;-74
2022/03/15 00:41:00;;;;;;;18.53;16.70;;;4.10;99.90;;;;;;4934559;29;20470;-74
2022/03/15 00:43:29;;;;;;;18.27;16.47;;;4.10;99.90;;;;;;4945532;29;20477;-74
2022/03/15 00:45:57;;;;;;;18.00;16.30;;;4.00;99.90;;;;;;4939681;28;20475;-74
2022/03/15 00:48:25;;;;;;;17.67;15.87;;;4.10;99.90;;;;;;4953552;28;20956;-74
2022/03/15 00:50:53;;;;;;;20.80;17.40;;;4.00;99.90;;;;;;4953514;28;20458;-74
2022/03/15 00:53:22;;;;;;;20.00;18.10;;;4.00;99.90;;;;;;4955007;29;20474;-74
2022/03/15 00:55:51;;;;;;;19.50;17.37;;;4.00;99.90;;;;;;4954697;28;20466;-74
2022/03/15 00:58:20;;;;;;;18.03;16.10;;;4.00;99.90;;;;;;4953471;28;20813;-74
2022/03/15 01:00:48;;;;;;;19.67;16.63;;;4.00;99.90;;;;;;4955220;28;20500;-74
2022/03/15 01:03:17;;;;;;;18.50;16.50;;;3.90;99.90;;;;;;4955140;28;20454;-74
2022/03/15 01:05:45;;;;;;;19.97;17.90;;;4.00;99.90;;;;;;4953359;28;20470;-73
2022/03/15 01:08:14;;;;;;;18.37;16.03;;;3.90;99.90;;;;;;4938086;29;20494;-74
2022/03/15 01:10:43;;;;;;;20.13;15.43;;;3.90;99.90;;;;;;4939405;29;20445;-73
2022/03/15 01:13:11;;;;;;;18.83;16.83;;;3.90;99.90;;;;;;4954792;28;20453;-74
2022/03/15 01:15:42;;;;;;;18.33;16.50;;;3.90;99.90;;;;;;4956740;28;20470;-74
2022/03/15 01:18:12;;;;;;;19.73;17.30;;;3.90;99.90;;;;;;4958338;29;20482;-74
2022/03/15 01:20:41;;;;;;;18.40;16.60;;;3.90;99.90;;;;;;4956738;28;20451;-74
2022/03/15 01:23:10;;;;;;;21.80;18.43;;;3.80;99.90;;;;;;4956726;29;20888;-74
2022/03/15 01:25:39;;;;;;;17.87;16.00;;;3.80;99.90;;;;;;4956635;28;20470;-74
2022/03/15 01:28:09;;;;;;;18.30;16.37;;;3.80;99.90;;;;;;4955938;29;21024;-74
2022/03/15 01:30:38;;;;;;;17.60;15.80;;;3.80;99.90;;;;;;4956558;29;20451;-74
2022/03/15 01:33:08;;;;;;;17.30;15.70;;;3.80;99.90;;;;;;4956772;28;20512;-73
2022/03/15 01:35:40;;;;;;;16.73;15.07;;;3.70;99.90;;;;;;4945344;28;20491;-73
2022/03/15 01:38:09;;;;;;;17.97;16.07;;;3.70;99.90;;;;;;4937289;28;20459;-74
2022/03/15 01:40:37;;;;;;;17.33;14.40;;;3.70;99.90;;;;;;4938757;29;20475;-73
2022/03/15 01:43:05;;;;;;;17.80;16.00;;;3.70;99.90;;;;;;4937299;29;21020;-74
2022/03/15 01:45:35;;;;;;;16.57;14.97;;;3.70;99.90;;;;;;4937121;29;20485;-73
2022/03/15 01:48:07;;;;;;;16.83;15.20;;;3.60;99.90;;;;;;4937122;29;20446;-74
2022/03/15 01:50:37;;;;;;;17.20;15.40;;;3.60;99.90;;;;;;4938123;29;20462;-74
2022/03/15 01:53:07;;;;;;;19.77;16.30;;;3.60;99.90;;;;;;4954927;29;20458;-73
2022/03/15 01:55:40;;;;;;;16.97;15.17;;;3.60;99.90;;;;;;4956042;28;20476;-73
2022/03/15 01:58:08;;;;;;;17.27;14.60;;;3.50;99.90;;;;;;4956052;28;20479;-73
2022/03/15 02:00:36;;;;;;;17.60;15.73;;;3.50;99.90;;;;;;4951868;29;20507;-74
2022/03/15 02:03:05;;;;;;;18.80;16.73;;;3.50;99.90;;;;;;4951373;29;20447;-74
2022/03/15 02:05:33;;;;;;;19.27;16.10;;;3.50;99.90;;;;;;4957225;28;20482;-74
2022/03/15 02:08:10;;;;;;;19.43;17.47;;;3.50;99.90;;;;;;4955915;28;20460;-74
2022/03/15 02:10:39;;;;;;;18.67;16.53;;;3.50;99.90;;;;;;4957091;28;20517;-73
2022/03/15 02:13:07;;;;;;;18.20;16.50;;;3.40;99.90;;;;;;4957265;28;20465;-73
2022/03/15 02:15:36;;;;;;;18.63;16.67;;;3.40;99.90;;;;;;4957248;28;20561;-73
2022/03/15 02:18:06;;;;;;;17.20;15.50;;;3.40;99.90;;;;;;4956948;28;20463;-73
2022/03/15 02:20:35;;;;;;;16.80;15.30;;;3.40;99.90;;;;;;4946772;29;20454;-73
2022/03/15 02:23:03;;;;;;;17.30;15.60;;;3.40;99.90;;;;;;4936430;29;20527;-73
2022/03/15 02:25:31;;;;;;;19.43;16.83;;;3.30;99.90;;;;;;4947154;28;20860;-74
2022/03/15 02:28:00;;;;;;;19.57;15.80;;;3.30;99.90;;;;;;4957324;29;20449;-74
2022/03/15 02:30:30;;;;;;;17.77;15.90;;;3.30;99.90;;;;;;4957050;28;20826;-74
2022/03/15 02:33:00;;;;;;;18.93;17.03;;;3.30;99.90;;;;;;4955472;28;20936;-74
2022/03/15 02:35:28;;;;;;;18.47;16.57;;;3.30;99.90;;;;;;4955203;28;20572;-73
2022/03/15 02:37:58;;;;;;;21.23;18.10;;;3.30;99.90;;;;;;4950929;28;20538;-73
2022/03/15 02:40:26;;;;;;;23.90;18.23;;;3.30;99.90;;;;;;4936172;29;20447;-74
2022/03/15 02:42:54;;;;;;;19.43;17.47;;;3.20;99.90;;;;;;4951210;29;20453;-74
2022/03/15 02:45:26;;;;;;;20.60;18.60;;;3.20;99.90;;;;;;4956284;28;20489;-74
2022/03/15 02:47:56;;;;;;;21.93;18.07;;;3.20;99.90;;;;;;4956601;28;20451;-73
2022/03/15 02:50:25;;;;;;;22.53;18.17;;;3.20;99.90;;;;;;4956246;28;20947;-74
2022/03/15 02:52:53;;;;;;;20.97;17.53;;;3.10;99.90;;;;;;4956371;28;20438;-73
2022/03/15 02:55:22;;;;;;;19.47;16.77;;;3.20;99.90;;;;;;4956140;28;20469;-74
2022/03/15 02:57:54;;;;;;;19.87;17.80;;;3.10;99.90;;;;;;4956235;28;20447;-74
2022/03/15 03:00:22;;;;;;;18.37;16.37;;;3.10;99.90;;;;;;4954246;28;20459;-73
2022/03/15 03:02:50;;;;;;;19.73;17.67;;;3.10;99.90;;;;;;4956023;29;20474;-74
2022/03/15 03:05:19;;;;;;;19.40;17.50;;;3.10;99.90;;;;;;4954700;28;21068;-73
2022/03/15 03:07:47;;;;;;;18.97;17.00;;;3.10;99.90;;;;;;4956269;29;20928;-73
2022/03/15 03:10:16;;;;;;;18.90;17.10;;;3.10;99.90;;;;;;4954698;28;20461;-74
2022/03/15 03:12:49;;;;;;;19.60;17.67;;;3.00;99.90;;;;;;4956245;28;20829;-74
2022/03/15 03:15:20;;;;;;;18.87;16.93;;;3.00;99.90;;;;;;4954642;28;20470;-73
2022/03/15 03:17:49;;;;;;;19.67;17.83;;;3.00;99.90;;;;;;4956336;29;20427;-74
2022/03/15 03:20:19;;;;;;;19.10;17.07;;;3.00;99.90;;;;;;4954581;28;20823;-74
2022/03/15 03:22:49;;;;;;;18.60;16.60;;;3.00;99.90;;;;;;4948886;28;20844;-74
2022/03/15 03:25:19;;;;;;;19.40;17.50;;;3.00;99.90;;;;;;4954102;28;20485;-73
2022/03/15 03:27:48;;;;;;;18.90;17.00;;;2.90;99.90;;;;;;4955986;28;20447;-74
2022/03/15 03:30:16;;;;;;;20.63;17.50;;;2.90;99.90;;;;;;4955685;29;20882;-74
2022/03/15 03:32:47;;;;;;;18.43;16.60;;;2.90;99.90;;;;;;4954358;28;20443;-74
2022/03/15 03:35:15;;;;;;;18.80;17.00;;;2.90;99.90;;;;;;4955450;28;20928;-74
2022/03/15 03:37:43;;;;;;;19.53;17.43;;;2.90;99.90;;;;;;4947712;28;20459;-73
2022/03/15 03:40:12;;;;;;;18.20;16.27;;;2.90;99.90;;;;;;4936495;28;20454;-74
2022/03/15 03:42:40;;;;;;;19.40;17.23;;;2.80;99.90;;;;;;4936291;29;20438;-74
2022/03/15 03:45:10;;;;;;;18.87;16.97;;;2.80;99.90;;;;;;4936157;29;20562;-74
2022/03/15 03:47:38;;;;;;;18.33;16.40;;;2.80;99.90;;;;;;4936238;29;20435;-73
2022/03/15 03:50:09;;;;;;;20.50;17.60;;;2.80;99.90;;;;;;4936469;29;20444;-74
2022/03/15 03:52:37;;;;;;;19.80;17.70;;;2.80;99.90;;;;;;4949960;29;20538;-73
2022/03/15 03:55:07;;;;;;;21.13;18.37;;;2.70;99.90;;;;;;4952167;28;20479;-73
2022/03/15 03:57:35;;;;;;;19.40;17.33;;;2.80;99.90;;;;;;4954079;28;20529;-73
2022/03/15 04:00:04;;;;;;;19.60;17.60;;;2.70;99.90;;;;;;4955194;29;20977;-74
2022/03/15 04:02:41;;;;;;;20.73;18.37;;;2.70;99.90;;;;;;4936442;29;20439;-73
2022/03/15 04:05:10;;;;;;;19.37;17.33;;;2.70;99.90;;;;;;4941867;29;20466;-74
2022/03/15 04:07:41;;;;;;;19.90;18.00;;;2.70;99.90;;;;;;4953896;28;20494;-73
2022/03/15 04:10:10;;;;;;;20.63;18.53;;;2.70;99.90;;;;;;4955547;28;20458;-74
2022/03/15 04:12:39;;;;;;;18.27;16.47;;;2.70;99.90;;;;;;4955475;28;20854;-73
2022/03/15 04:15:08;;;;;;;20.70;18.53;;;2.70;99.90;;;;;;4953918;29;20843;-74
2022/03/15 04:17:36;;;;;;;20.90;18.70;;;2.70;99.90;;;;;;4955108;29;20452;-74
2022/03/15 04:20:06;;;;;;;19.83;17.73;;;2.70;99.90;;;;;;4955288;29;20454;-73
2022/03/15 04:22:35;;;;;;;22.40;19.83;;;2.70;99.90;;;;;;4953913;28;20474;-73
2022/03/15 04:25:04;;;;;;;22.60;19.60;;;2.70;99.90;;;;;;4953730;28;20579;-73
2022/03/15 04:27:32;;;;;;;20.30;18.20;;;2.70;99.90;;;;;;4949211;29;20458;-74
2022/03/15 04:30:00;;;;;;;21.17;17.20;;;2.70;99.90;;;;;;4947273;29;20454;-73
2022/03/15 04:32:28;;;;;;;22.60;19.57;;;2.70;99.90;;;;;;4953692;28;21015;-74
2022/03/15 04:34:56;;;;;;;22.63;20.33;;;2.70;99.90;;;;;;4953507;28;20478;-74
2022/03/15 04:37:26;;;;;;;25.33;22.13;;;2.70;99.90;;;;;;4953701;29;20487;-74
2022/03/15 04:39:55;;;;;;;27.47;23.83;;;2.70;99.90;;;;;;4955494;28;21005;-74
2022/03/15 04:42:24;;;;;;;24.17;21.77;;;2.70;99.90;;;;;;4954882;28;20448;-73
2022/03/15 04:44:52;;;;;;;26.13;23.53;;;2.70;99.90;;;;;;4953618;28;20575;-74
2022/03/15 04:47:21;;;;;;;24.50;20.93;;;2.70;99.90;;;;;;4953659;28;20481;-74
2022/03/15 04:49:49;;;;;;;22.93;20.73;;;2.70;99.90;;;;;;4957540;29;20530;-74
2022/03/15 04:52:18;;;;;;;24.10;21.40;;;2.70;99.90;;;;;;4956643;28;20991;-74
2022/03/15 04:54:47;;;;;;;22.90;19.93;;;2.70;99.90;;;;;;4958346;28;20997;-74
2022/03/15 04:57:16;;;;;;;21.30;19.30;;;2.70;99.90;;;;;;4957228;29;20499;-73
2022/03/15 04:59:44;;;;;;;23.27;20.80;;;2.70;99.90;;;;;;4958382;28;20438;-74
2022/03/15 05:02:12;;;;;;;20.10;18.00;;;2.70;99.90;;;;;;4957025;29;20449;-74
2022/03/15 05:04:40;;;;;;;22.30;18.20;;;2.70;99.90;;;;;;4952897;28;20575;-74
2022/03/15 05:07:08;;;;;;;23.20;20.87;;;2.70;99.90;;;;;;4937806;29;20483;-74
2022/03/15 05:11:05;;;;;;;29.17;23.00;;;2.70;99.90;;;;;;4939323;29;20443;-74
2022/03/15 05:12:25;;;;;;;20.83;18.67;;;2.70;99.90;;;;;;4938788;28;21029;-74
2022/03/15 05:14:54;;;;;;;19.90;18.00;;;2.70;99.90;;;;;;4937593;29;20473;-74
2022/03/15 05:17:23;;;;;;;21.23;19.13;;;2.70;99.90;;;;;;4938838;29;20604;-74
2022/03/15 05:19:51;;;;;;;21.00;18.80;;;2.70;99.90;;;;;;4939046;29;20451;-74
2022/03/15 05:22:22;;;;;;;20.97;18.90;;;2.80;99.90;;;;;;4939129;29;20451;-73
2022/03/15 05:24:50;;;;;;;23.20;20.80;;;2.80;99.90;;;;;;4938745;29;20463;-74
2022/03/15 05:27:19;;;;;;;23.17;20.77;;;2.80;99.90;;;;;;4937468;29;20507;-74
2022/03/15 05:29:48;;;;;;;21.43;19.23;;;2.80;99.90;;;;;;4938638;29;20439;-74
2022/03/15 05:32:16;;;;;;;22.03;18.40;;;2.80;99.90;;;;;;4937695;29;20510;-74
2022/03/15 05:34:44;;;;;;;20.60;18.60;;;2.80;99.90;;;;;;4938391;29;20660;-74
2022/03/15 05:37:12;;;;;;;19.90;17.97;;;2.80;99.90;;;;;;4937286;29;20454;-73
2022/03/15 05:39:40;;;;;;;20.03;18.20;;;2.90;99.90;;;;;;4938556;28;20443;-73
2022/03/15 05:42:11;;;;;;;19.43;17.43;;;2.80;99.90;;;;;;4937192;29;20963;-73
2022/03/15 05:44:45;;;;;;;21.57;19.37;;;2.90;99.90;;;;;;4953162;29;20481;-74
2022/03/15 05:47:15;;;;;;;20.60;18.50;;;2.90;99.90;;;;;;4938534;29;20485;-73
2022/03/15 05:49:43;;;;;;;20.50;18.47;;;2.90;99.90;;;;;;4937159;29;20447;-74
2022/03/15 05:52:11;;;;;;;22.20;20.00;;;2.90;99.90;;;;;;4952939;29;20551;-74
2022/03/15 05:54:40;;;;;;;21.43;19.23;;;2.90;99.90;;;;;;4938440;29;20817;-74
2022/03/15 05:57:08;;;;;;;22.73;20.63;;;2.90;99.90;;;;;;4936896;29;20513;-74
2022/03/15 05:59:36;;;;;;;20.90;18.73;;;2.90;99.90;;;;;;4936721;29;20443;-74
2022/03/15 06:02:04;;;;;;;23.97;21.50;;;2.90;99.90;;;;;;4936775;28;20455;-74
2022/03/15 06:04:35;;;;;;;20.53;18.57;;;2.90;99.90;;;;;;4936690;29;20846;-74
2022/03/15 06:07:04;;;;;;;20.93;18.97;;;2.90;99.90;;;;;;4938326;29;20542;-73
2022/03/15 06:09:35;;;;;;;22.20;19.97;;;3.00;99.90;;;;;;4938001;29;20432;-74
2022/03/15 06:12:04;;;;;;;23.80;21.60;;;3.00;99.90;;;;;;4952667;28;20448;-74
2022/03/15 06:14:32;;;;;;;22.70;20.30;;;3.00;99.90;;;;;;4936560;29;20474;-73
2022/03/15 06:17:00;;;;;;;23.50;21.10;;;3.00;99.90;;;;;;4938296;29;20944;-74
2022/03/15 06:19:28;;;;;;;24.17;21.77;;;3.00;99.90;;;;;;4938020;29;20444;-73
2022/03/15 06:21:58;;;;;;;22.10;19.83;;;3.10;99.90;;;;;;4937810;29;20447;-73
2022/03/15 06:24:27;;;;;;;27.03;24.33;;;3.10;99.90;;;;;;4937502;29;20477;-73
2022/03/15 06:26:57;;;;;;;24.10;21.70;;;3.10;99.90;;;;;;4937566;29;20513;-73
2022/03/15 06:29:25;;;;;;;25.60;23.10;;;3.20;99.90;;;;;;4937609;29;20522;-73
2022/03/15 06:31:54;;;;;;;28.23;24.27;;;3.20;99.90;;;;;;4937529;29;20971;-73
2022/03/15 06:34:42;;;;;;;28.07;25.17;;;3.20;99.90;;;;;;4937658;29;20482;-73
2022/03/15 06:37:12;;;;;;;29.50;26.43;;;3.30;99.90;;;;;;4937738;29;20451;-73
2022/03/15 06:39:40;;;;;;;32.20;27.63;;;3.30;99.90;;;;;;4937465;28;20459;-73
2022/03/15 06:42:11;;;;;;;28.90;26.13;;;3.30;99.90;;;;;;4937377;29;20443;-73
2022/03/15 06:44:40;;;;;;;31.70;28.60;;;3.40;99.90;;;;;;4937362;29;20889;-73
2022/03/15 06:47:09;;;;;;;33.87;29.77;;;3.40;99.90;;;;;;4937180;29;20558;-73
2022/03/15 06:49:37;;;;;;;34.50;30.93;;;3.40;99.90;;;;;;4937431;29;20450;-73
2022/03/15 06:52:06;;;;;;;34.30;30.90;;;3.50;99.90;;;;;;4935904;29;20455;-74
2022/03/15 06:54:35;;;;;;;34.50;30.87;;;3.50;99.90;;;;;;4937358;29;20467;-74
2022/03/15 06:57:04;;;;;;;41.83;37.33;;;3.60;99.90;;;;;;4937422;29;20806;-74
2022/03/15 06:59:32;;;;;;;35.13;31.07;;;3.60;99.90;;;;;;4951664;29;20447;-74
2022/03/15 07:02:01;;;;;;;35.83;31.97;;;3.70;99.90;;;;;;4937023;29;20887;-74
2022/03/15 07:04:30;;;;;;;38.70;32.33;;;3.70;99.90;;;;;;4936811;29;20463;-74
2022/03/15 07:06:58;;;;;;;38.53;34.40;;;3.80;99.90;;;;;;4951472;28;20993;-74
2022/03/15 07:09:26;;;;;;;40.23;33.83;;;3.80;99.90;;;;;;4936927;29;20449;-74
2022/03/15 07:11:57;;;;;;;38.80;33.20;;;3.90;99.90;;;;;;4935116;29;20541;-74
2022/03/15 07:14:25;;;;;;;43.20;38.70;;;3.90;99.90;;;;;;4935554;29;20470;-74
2022/03/15 07:16:53;;;;;;;39.57;35.30;;;4.00;99.90;;;;;;4936900;28;20446;-74
2022/03/15 07:19:21;;;;;;;40.73;36.37;;;4.10;99.90;;;;;;4935507;29;20447;-74
2022/03/15 07:21:50;;;;;;;38.70;34.33;;;4.10;99.90;;;;;;4936926;29;20446;-74
2022/03/15 07:24:18;;;;;;;43.50;37.13;;;4.20;99.90;;;;;;4936867;28;20536;-74
2022/03/15 07:26:48;;;;;;;43.97;38.90;;;4.30;99.90;;;;;;4936745;29;20483;-74
2022/03/15 07:29:18;;;;;;;44.83;37.30;;;4.30;99.90;;;;;;4952340;28;20447;-74
2022/03/15 07:31:48;;;;;;;42.20;37.67;;;4.30;99.90;;;;;;4951357;29;20455;-74
2022/03/15 07:34:17;;;;;;;42.73;38.13;;;4.40;99.90;;;;;;4936542;29;20519;-74
2022/03/15 07:36:45;;;;;;;45.80;41.00;;;4.50;99.90;;;;;;4937542;28;20432;-74
2022/03/15 07:39:18;;;;;;;46.63;40.57;;;4.50;99.90;;;;;;4935161;29;20546;-73
2022/03/15 07:41:46;;;;;;;47.07;39.50;;;4.60;99.90;;;;;;4935167;29;20448;-73
2022/03/15 07:44:14;;;;;;;46.77;39.80;;;4.60;99.90;;;;;;4935023;28;20448;-73
2022/03/15 07:46:48;;;;;;;50.20;43.10;;;4.70;99.90;;;;;;4934985;29;21036;-73
2022/03/15 07:49:18;;;;;;;48.00;41.67;;;4.80;99.90;;;;;;4935193;29;20506;-74
2022/03/15 07:51:47;;;;;;;46.93;41.77;;;4.80;99.90;;;;;;4936461;29;20447;-74
2022/03/15 07:54:16;;;;;;;50.40;44.93;;;4.90;99.90;;;;;;4936061;28;21010;-74
2022/03/15 07:56:44;;;;;;;47.07;41.33;;;5.00;99.90;;;;;;4936471;29;20443;-74
2022/03/15 07:59:12;;;;;;;45.40;40.73;;;5.10;99.90;;;;;;4934881;29;20501;-74
2022/03/15 08:01:41;;;;;;;46.43;41.60;;;5.10;99.90;;;;;;4936168;29;20962;-74
2022/03/15 08:04:10;;;;;;;48.63;43.43;;;5.20;99.90;;;;;;4936008;29;20447;-74
2022/03/15 08:06:38;;;;;;;47.50;42.37;;;5.20;99.90;;;;;;4937270;28;20452;-74
2022/03/15 08:09:07;;;;;;;50.50;45.40;;;5.30;99.90;;;;;;4935587;29;20481;-74
2022/03/15 08:11:36;;;;;;;48.57;44.00;;;5.40;99.90;;;;;;4936907;29;20443;-74
2022/03/15 08:14:07;;;;;;;51.07;46.17;;;5.40;99.90;;;;;;4935338;29;20455;-74
2022/03/15 08:16:35;;;;;;;48.90;44.13;;;5.50;99.90;;;;;;4936670;29;20463;-74
2022/03/15 08:19:04;;;;;;;53.07;48.20;;;5.60;99.90;;;;;;4934774;29;20484;-74
2022/03/15 08:21:35;;;;;;;51.23;46.37;;;5.70;99.90;;;;;;4936057;29;20450;-74
2022/03/15 08:24:03;;;;;;;52.97;47.67;;;5.70;99.90;;;;;;4937673;29;20527;-74
2022/03/15 08:26:31;;;;;;;52.93;47.70;;;5.70;99.90;;;;;;4939792;29;20444;-74
2022/03/15 08:28:59;;;;;;;52.43;47.00;;;5.80;99.90;;;;;;4939952;29;21067;-74
2022/03/15 08:31:28;;;;;;;54.60;49.23;;;5.90;99.90;;;;;;4939741;29;20444;-74
2022/03/15 08:33:56;;;;;;;53.27;47.90;;;6.00;99.90;;;;;;4939594;29;20448;-74
2022/03/15 08:36:24;;;;;;;53.73;48.40;;;6.00;99.90;;;;;;4938442;28;20434;-74
2022/03/15 08:38:53;;;;;;;52.83;47.50;;;6.10;99.90;;;;;;4939891;29;20449;-74
2022/03/15 08:41:21;;;;;;;51.23;46.27;;;6.10;99.90;;;;;;4938336;29;20546;-74
2022/03/15 08:43:49;;;;;;;52.23;47.13;;;6.20;99.90;;;;;;4939829;29;20448;-75
2022/03/15 08:46:17;;;;;;;50.77;45.83;;;6.20;99.90;;;;;;4938134;29;20478;-75
2022/03/15 08:48:46;;;;;;;52.57;47.33;;;6.30;99.90;;;;;;4938099;29;20510;-75
2022/03/15 08:51:14;;;;;;;51.40;46.37;;;6.40;99.90;;;;;;4939878;29;20470;-75
2022/03/15 08:53:43;;;;;;;49.40;44.57;;;6.40;99.90;;;;;;4938129;29;20458;-75
2022/03/15 08:56:12;;;;;;;54.23;48.90;;;6.50;99.90;;;;;;4953912;28;20824;-75
2022/03/15 08:58:40;;;;;;;52.77;47.60;;;6.50;99.90;;;;;;4939530;29;20443;-75
2022/03/15 09:01:08;;;;;;;51.97;46.93;;;6.60;99.90;;;;;;4939507;29;20446;-75
2022/03/15 09:03:57;;;;;;;52.43;47.23;;;6.60;99.90;;;;;;4939335;29;20443;-75
2022/03/15 09:06:25;;;;;;;52.93;47.53;;;6.70;99.90;;;;;;4939153;29;20533;-75
2022/03/15 09:08:53;;;;;;;55.60;50.30;;;6.70;99.90;;;;;;4953827;28;20991;-75
2022/03/15 09:11:23;;;;;;;52.77;47.80;;;6.80;99.90;;;;;;4953673;28;20459;-75
2022/03/15 09:13:51;;;;;;;51.37;46.60;;;6.80;99.90;;;;;;4939036;29;20439;-75
2022/03/15 09:16:20;;;;;;;56.30;48.70;;;6.90;99.90;;;;;;4937649;29;20476;-75
2022/03/15 09:18:48;;;;;;;74.80;53.10;;;6.90;99.90;;;;;;4938901;29;20438;-75
2022/03/15 09:21:18;;;;;;;157.90;69.53;;;7.00;99.90;;;;;;4937782;28;20979;-75
2022/03/15 09:23:46;;;;;;;50.93;46.00;;;7.00;99.90;;;;;;4953587;28;20451;-75
2022/03/15 09:26:14;;;;;;;54.10;48.60;;;7.10;99.90;;;;;;4938894;29;20467;-75
2022/03/15 09:28:44;;;;;;;458.40;145.97;;;7.10;99.90;;;;;;4938913;29;21009;-75
2022/03/15 09:31:12;;;;;;;52.83;47.40;;;7.20;99.90;;;;;;4937475;28;21030;-75
2022/03/15 09:33:43;;;;;;;51.40;46.47;;;7.30;99.90;;;;;;4938612;29;21039;-75
2022/03/15 09:36:12;;;;;;;49.83;44.90;;;7.30;99.90;;;;;;4952704;28;20484;-75
2022/03/15 09:38:40;;;;;;;51.43;46.40;;;7.40;99.90;;;;;;4937219;29;20492;-75
2022/03/15 09:41:09;;;;;;;51.50;46.13;;;7.40;99.90;;;;;;4953224;28;20454;-75
2022/03/15 09:43:39;;;;;;;50.73;45.77;;;7.50;99.90;;;;;;4938423;29;20449;-75
2022/03/15 09:46:09;;;;;;;49.80;45.03;;;7.50;99.90;;;;;;4938336;29;20474;-75
2022/03/15 09:48:59;;;;;;;47.40;42.60;;;7.50;99.90;;;;;;4936929;29;20474;-75
2022/03/15 09:51:32;;;;;;;84.90;51.17;;;7.60;99.90;;;;;;4938515;29;20457;-75
2022/03/15 09:54:02;;;;;;;50.10;45.50;;;7.60;99.90;;;;;;4938437;29;20449;-75
2022/03/15 09:56:30;;;;;;;48.03;43.53;;;7.70;99.90;;;;;;4953168;28;20816;-76
2022/03/15 09:59:01;;;;;;;48.10;43.47;;;7.70;99.90;;;;;;4952898;29;20912;-76
2022/03/15 10:01:31;;;;;;;48.30;43.50;;;7.80;99.90;;;;;;4936837;29;20452;-75
2022/03/15 10:03:59;;;;;;;48.10;43.30;;;7.80;99.90;;;;;;4938277;29;20427;-75
2022/03/15 10:06:28;;;;;;;52.50;47.30;;;7.90;99.90;;;;;;4938113;29;20446;-75
2022/03/15 10:08:56;;;;;;;48.13;43.20;;;7.90;99.90;;;;;;4937900;29;20481;-75
2022/03/15 10:11:25;;;;;;;46.17;41.63;;;8.00;99.90;;;;;;4936675;28;20457;-75
2022/03/15 10:13:53;;;;;;;46.63;42.13;;;8.00;99.90;;;;;;4938136;29;20519;-75
2022/03/15 10:16:22;;;;;;;45.10;40.83;;;8.00;99.90;;;;;;4936550;29;20993;-75
2022/03/15 10:18:57;;;;;;;44.13;39.83;;;8.10;99.90;;;;;;4936626;29;20563;-75
2022/03/15 10:21:26;;;;;;;44.80;40.40;;;8.10;99.90;;;;;;4952556;28;20453;-75
2022/03/15 10:23:55;;;;;;;46.63;42.37;;;8.10;99.90;;;;;;4936413;29;20463;-75
2022/03/15 10:26:25;;;;;;;45.30;40.80;;;8.20;99.90;;;;;;4936318;29;20478;-75
2022/03/15 10:28:54;;;;;;;45.50;41.20;;;8.20;99.90;;;;;;4937825;29;20859;-75
2022/03/15 10:31:23;;;;;;;46.13;41.53;;;8.30;99.90;;;;;;4936314;29;20493;-75
2022/03/15 10:34:00;;;;;;;45.90;41.37;;;8.40;99.90;;;;;;4936372;29;20554;-76
2022/03/15 10:36:38;;;;;;;45.80;41.20;;;8.40;99.90;;;;;;4936308;29;20475;-76
2022/03/15 10:39:07;;;;;;;44.27;39.53;;;8.50;99.90;;;;;;4937742;29;20486;-75
2022/03/15 10:41:47;;;;;;;46.60;42.30;;;8.50;99.90;;;;;;4936101;28;20453;-76
2022/03/15 10:44:20;;;;;;;46.50;42.40;;;8.50;99.90;;;;;;4952136;29;20470;-76
2022/03/15 10:47:00;;;;;;;44.77;40.37;;;8.50;99.90;;;;;;4935206;29;20461;-76
2022/03/15 10:49:32;;;;;;;47.20;42.70;;;8.60;99.90;;;;;;4937784;29;20502;-76
2022/03/15 10:52:00;;;;;;;46.23;41.53;;;8.70;99.90;;;;;;4952246;29;20463;-76
2022/03/15 10:54:28;;;;;;;47.87;43.30;;;8.80;99.90;;;;;;4937373;29;20823;-76
2022/03/15 10:56:58;;;;;;;50.80;45.80;;;8.80;99.90;;;;;;4937385;29;20474;-76
2022/03/15 10:59:27;;;;;;;45.77;41.27;;;8.90;99.90;;;;;;4935806;29;20455;-76
2022/03/15 11:01:56;;;;;;;49.50;44.37;;;9.00;99.90;;;;;;4935762;29;20459;-76
2022/03/15 11:04:24;;;;;;;47.60;43.10;;;9.00;99.90;;;;;;4937074;29;20455;-76
2022/03/15 11:06:57;;;;;;;44.00;39.80;;;9.10;99.90;;;;;;4937017;29;20416;-76
2022/03/15 11:09:43;;;;;;;42.77;38.93;;;9.20;99.90;;;;;;4935592;29;20475;-76
2022/03/15 11:12:12;;;;;;;43.50;39.20;;;9.20;99.90;;;;;;4935623;29;20563;-76
2022/03/15 11:14:45;;;;;;;43.73;39.53;;;9.30;99.90;;;;;;4937010;29;20467;-76
2022/03/15 11:17:21;;;;;;;40.37;36.67;;;9.30;99.90;;;;;;4937001;28;20423;-76
2022/03/15 11:19:52;;;;;;;42.30;38.20;;;9.40;99.90;;;;;;4936999;29;20435;-76
2022/03/15 11:22:23;;;;;;;43.03;38.80;;;9.50;99.90;;;;;;4936892;29;20462;-76
2022/03/15 11:25:02;;;;;;;42.53;38.50;;;9.50;99.90;;;;;;4951422;28;20478;-76
2022/03/15 11:27:32;;;;;;;41.47;37.53;;;9.60;99.90;;;;;;4936652;29;20515;-76
2022/03/15 11:30:03;;;;;;;42.40;38.20;;;9.60;99.90;;;;;;4951181;28;20471;-76
2022/03/15 11:32:33;;;;;;;44.50;40.40;;;9.70;99.90;;;;;;4936570;29;20906;-76
2022/03/15 11:35:01;;;;;;;42.60;38.40;;;9.80;99.90;;;;;;4938422;28;20582;-76
2022/03/15 11:37:31;;;;;;;41.70;37.60;;;9.90;99.90;;;;;;4937547;29;20520;-76
2022/03/15 11:40:01;;;;;;;41.80;37.80;;;9.90;99.90;;;;;;4938128;29;20456;-76
2022/03/15 11:42:31;;;;;;;44.17;39.83;;;10.00;99.90;;;;;;4951488;28;21050;-76
2022/03/15 11:45:06;;;;;;;41.67;37.60;;;10.10;99.90;;;;;;4935344;29;20487;-76
2022/03/15 11:47:41;;;;;;;41.47;37.40;;;10.10;99.90;;;;;;4935359;29;20851;-76
2022/03/15 11:50:20;;;;;;;38.40;34.70;;;10.20;99.90;;;;;;4936993;29;20459;-76
2022/03/15 11:53:06;;;;;;;41.20;37.20;;;10.30;99.90;;;;;;4935215;29;20444;-76
2022/03/15 11:55:42;;;;;;;39.37;35.50;;;10.30;99.90;;;;;;4934926;29;20558;-76
2022/03/15 11:58:11;;;;;;;40.77;37.00;;;10.40;99.90;;;;;;4950805;28;20453;-76
2022/03/15 12:00:44;;;;;;;37.60;33.90;;;10.40;99.90;;;;;;4936184;28;20817;-76
2022/03/15 12:03:17;;;;;;;37.93;34.20;;;10.40;99.90;;;;;;4936526;29;20767;-76
2022/03/15 12:05:46;;;;;;;39.40;35.50;;;10.50;99.90;;;;;;4935253;29;20973;-76
2022/03/15 12:08:19;;;;;;;37.53;33.83;;;10.50;99.90;;;;;;4951038;28;20884;-76
2022/03/15 12:10:56;;;;;;;38.60;35.00;;;10.60;99.90;;;;;;4936053;29;20487;-76
2022/03/15 12:13:39;;;;;;;39.10;35.10;;;10.60;99.90;;;;;;4950834;29;20466;-77
2022/03/15 12:16:11;;;;;;;38.47;34.40;;;10.60;99.90;;;;;;4934666;29;20535;-76
2022/03/15 12:18:45;;;;;;;36.37;32.50;;;10.70;99.90;;;;;;4934810;29;20945;-77
2022/03/15 12:21:13;;;;;;;40.47;36.37;;;10.70;99.90;;;;;;4936312;28;20432;-76
2022/03/15 12:23:44;;;;;;;38.40;34.50;;;10.70;99.90;;;;;;4935972;29;20448;-76
2022/03/15 12:26:24;;;;;;;37.33;33.70;;;10.70;99.90;;;;;;4934538;29;20483;-76
2022/03/15 12:28:57;;;;;;;38.67;34.93;;;10.80;99.90;;;;;;4936087;29;20427;-76
2022/03/15 12:31:36;;;;;;;50.33;45.60;;;10.80;99.90;;;;;;4935928;29;20464;-77
2022/03/15 12:34:07;;;;;;;38.43;34.43;;;10.90;99.90;;;;;;4935723;29;20427;-77
2022/03/15 12:36:41;;;;;;;38.63;34.77;;;10.90;99.90;;;;;;4935845;29;20436;-76
2022/03/15 12:39:12;;;;;;;39.20;35.13;;;10.90;99.90;;;;;;4936120;29;20482;-76
2022/03/15 12:42:08;;;;;;;37.60;33.70;;;11.00;99.90;;;;;;4934623;29;20448;-77
2022/03/15 12:44:42;;;;;;;36.27;32.77;;;11.00;99.90;;;;;;4935795;29;20939;-77
2022/03/15 12:47:16;;;;;;;36.33;32.57;;;11.00;99.90;;;;;;4934531;29;20463;-77
2022/03/15 12:50:06;;;;;;;37.13;33.33;;;11.00;99.90;;;;;;4934534;28;20911;-77